createdAt,value
2019-04-11T00:00:31.397Z,101970.92
2019-04-11T00:00:57.740Z,101970.45
2019-04-11T00:01:36.121Z,101973.14
2019-04-11T00:01:53.432Z,101968.69
2019-04-11T00:02:20.653Z,101969.16
2019-04-11T00:02:45.388Z,101970.98
2019-04-11T00:03:11.256Z,101971.55
2019-04-11T00:03:36.106Z,101972.91
2019-04-11T00:04:01.702Z,101975.61
2019-04-11T00:04:26.543Z,101971.14
2019-04-11T00:04:51.146Z,101977.50
2019-04-11T00:05:16.881Z,101977.50
2019-04-11T00:05:41.519Z,101970.37
2019-04-11T00:06:06.161Z,101970.84
2019-04-11T00:06:31.789Z,101975.77
2019-04-11T00:06:56.571Z,101972.09
2019-04-11T00:07:22.385Z,101975.77
2019-04-11T00:07:47.218Z,101981.17
2019-04-11T00:08:12.128Z,101973.07
2019-04-11T00:08:37.233Z,101975.27
2019-04-11T00:09:04.696Z,101981.17
2019-04-11T00:09:30.374Z,101973.13
2019-04-11T00:09:55.070Z,101978.06
2019-04-11T00:10:20.761Z,101975.84
2019-04-11T00:10:45.477Z,101974.02
2019-04-11T00:11:11.457Z,101976.72
2019-04-11T00:11:36.262Z,101978.53
2019-04-11T00:12:01.990Z,101977.66
2019-04-11T00:12:26.685Z,101976.41
2019-04-11T00:12:51.309Z,101975.90
2019-04-11T00:13:21.545Z,101978.13
2019-04-11T00:13:43.167Z,101974.55
2019-04-11T00:14:07.993Z,101977.25
2019-04-11T00:14:32.747Z,101978.13
2019-04-11T00:14:57.452Z,101979.48
2019-04-11T00:15:22.110Z,101978.60
2019-04-11T00:15:46.793Z,101977.25
2019-04-11T00:16:11.591Z,101981.30
2019-04-11T00:16:37.146Z,101978.60
2019-04-11T00:17:02.169Z,101981.30
2019-04-11T00:17:27.978Z,101981.30
2019-04-11T00:17:54.182Z,101977.75
2019-04-11T00:18:19.082Z,101977.66
2019-04-11T00:18:44.938Z,101979.95
2019-04-11T00:19:09.618Z,101978.23
2019-04-11T00:19:34.270Z,101984.88
2019-04-11T00:19:59.933Z,101977.25
2019-04-11T00:20:25.816Z,101979.58
2019-04-11T00:20:51.196Z,101982.28
2019-04-11T00:21:16.975Z,101975.52
2019-04-11T00:21:41.851Z,101980.93
2019-04-11T00:22:06.483Z,101979.17
2019-04-11T00:22:31.189Z,101982.28
2019-04-11T00:22:55.799Z,101977.81
2019-04-11T00:23:20.448Z,101980.05
2019-04-11T00:23:46.107Z,101975.12
2019-04-11T00:24:10.976Z,101980.52
2019-04-11T00:24:36.670Z,101976.06
2019-04-11T00:25:01.410Z,101971.06
2019-04-11T00:25:26.050Z,101980.52
2019-04-11T00:25:51.640Z,101980.52
2019-04-11T00:26:16.515Z,101977.00
2019-04-11T00:26:41.335Z,101975.18
2019-04-11T00:27:06.240Z,101977.00
2019-04-11T00:27:30.852Z,101975.18
2019-04-11T00:27:55.498Z,101981.05
2019-04-11T00:28:20.115Z,101974.88
2019-04-11T00:28:45.731Z,101981.22
2019-04-11T00:29:10.517Z,101977.98
2019-04-11T00:29:35.217Z,101978.52
2019-04-11T00:29:59.829Z,101977.17
2019-04-11T00:30:24.455Z,101978.52
2019-04-11T00:30:49.101Z,101986.16
2019-04-11T00:31:14.705Z,101982.16
2019-04-11T00:31:39.395Z,101986.63
2019-04-11T00:32:06.526Z,101980.34
2019-04-11T00:32:31.622Z,101985.74
2019-04-11T00:32:56.371Z,101979.09
2019-04-11T00:33:21.001Z,101984.48
2019-04-11T00:33:46.580Z,101987.19
2019-04-11T00:34:11.441Z,101979.56
2019-04-11T00:34:37.233Z,101988.13
2019-04-11T00:35:02.049Z,101985.44
2019-04-11T00:35:27.847Z,101982.33
2019-04-11T00:35:52.707Z,101986.78
2019-04-11T00:36:17.337Z,101986.37
2019-04-11T00:36:42.013Z,101986.47
2019-04-11T00:37:07.227Z,101987.32
2019-04-11T00:37:32.778Z,101981.91
2019-04-11T00:37:57.475Z,101983.67
2019-04-11T00:38:22.129Z,101980.97
2019-04-11T00:38:47.774Z,101979.22
2019-04-11T00:39:13.453Z,101987.32
2019-04-11T00:39:38.091Z,101985.13
2019-04-11T00:40:03.785Z,101988.67
2019-04-11T00:40:29.088Z,101985.59
2019-04-11T00:40:54.294Z,101988.30
2019-04-11T00:41:19.287Z,101989.23
2019-04-11T00:41:43.941Z,101986.13
2019-04-11T00:42:08.542Z,101988.83
2019-04-11T00:42:33.155Z,101987.42
2019-04-11T00:42:58.826Z,101984.78
2019-04-11T00:43:31.603Z,101987.48
2019-04-11T00:43:50.479Z,101983.99
2019-04-11T00:44:15.291Z,101989.39
2019-04-11T00:44:41.085Z,101989.77
2019-04-11T00:45:07.445Z,101987.48
2019-04-11T00:45:32.247Z,101991.53
2019-04-11T00:45:58.094Z,101992.47
2019-04-11T00:46:22.856Z,101993.83
2019-04-11T00:46:48.759Z,101991.12
2019-04-11T00:47:13.564Z,101992.09
2019-04-11T00:47:39.676Z,101988.98
2019-04-11T00:48:05.732Z,101987.20
2019-04-11T00:48:30.607Z,101986.73
2019-04-11T00:48:55.259Z,101985.84
2019-04-11T00:49:19.903Z,101985.95
2019-04-11T00:49:44.547Z,101986.73
2019-04-11T00:50:09.147Z,101985.38
2019-04-11T00:50:34.904Z,101987.20
2019-04-11T00:50:59.721Z,101987.64
2019-04-11T00:51:25.588Z,101989.89
2019-04-11T00:51:50.469Z,101990.88
2019-04-11T00:52:16.042Z,101991.41
2019-04-11T00:52:41.289Z,101988.64
2019-04-11T00:53:05.988Z,101981.95
2019-04-11T00:53:30.958Z,101987.77
2019-04-11T00:53:55.703Z,101987.77
2019-04-11T00:54:20.525Z,101984.19
2019-04-11T00:54:45.247Z,101980.67
2019-04-11T00:55:09.900Z,101982.42
2019-04-11T00:55:35.532Z,101984.25
2019-04-11T00:56:00.312Z,101980.67
2019-04-11T00:56:26.162Z,101980.61
2019-04-11T00:56:50.903Z,101981.55
2019-04-11T00:57:15.523Z,101982.52
2019-04-11T00:57:41.122Z,101985.22
2019-04-11T00:58:05.856Z,101990.13
2019-04-11T00:58:54.251Z,101986.58
2019-04-11T00:59:18.887Z,101987.42
2019-04-11T00:59:44.384Z,101981.64
2019-04-11T01:00:09.387Z,101987.52
2019-04-11T01:00:33.992Z,101987.98
2019-04-11T01:00:59.667Z,101987.11
2019-04-11T01:01:24.421Z,101984.00
2019-04-11T01:01:50.053Z,101987.11
2019-04-11T01:02:15.631Z,101979.06
2019-04-11T01:02:42.202Z,101991.22
2019-04-11T01:03:06.731Z,101984.97
2019-04-11T01:03:31.392Z,101985.92
2019-04-11T01:03:56.011Z,101984.00
2019-04-11T01:04:20.627Z,101983.63
2019-04-11T01:04:45.383Z,101989.50
2019-04-11T01:05:10.199Z,101980.11
2019-04-11T01:05:34.873Z,101989.09
2019-04-11T01:05:59.520Z,101984.09
2019-04-11T01:06:24.125Z,101984.56
2019-04-11T01:06:48.754Z,101988.62
2019-04-11T01:07:14.484Z,101991.78
2019-04-11T01:07:39.223Z,101992.66
2019-04-11T01:08:05.135Z,101990.91
2019-04-11T01:08:29.867Z,101991.85
2019-04-11T01:08:55.720Z,101991.85
2019-04-11T01:09:20.529Z,101988.27
2019-04-11T01:09:45.448Z,101992.73
2019-04-11T01:10:10.199Z,101992.33
2019-04-11T01:10:35.209Z,101989.72
2019-04-11T01:10:59.939Z,101989.72
2019-04-11T01:11:24.796Z,101991.48
2019-04-11T01:11:49.593Z,101989.72
2019-04-11T01:12:16.425Z,101991.53
2019-04-11T01:12:41.159Z,101992.01
2019-04-11T01:13:05.763Z,101987.95
2019-04-11T01:13:39.734Z,101994.23
2019-04-11T01:13:57.338Z,101992.89
2019-04-11T01:14:22.038Z,101988.84
2019-04-11T01:14:46.924Z,101991.06
2019-04-11T01:15:13.374Z,101993.77
2019-04-11T01:15:40.690Z,101994.71
2019-04-11T01:16:20.083Z,101990.25
2019-04-11T01:16:55.204Z,101996.13
2019-04-11T01:17:19.872Z,101993.92
2019-04-11T01:17:45.379Z,101989.47
2019-04-11T01:18:10.144Z,101989.06
2019-04-11T01:18:34.796Z,101986.36
2019-04-11T01:19:00.403Z,101989.53
2019-04-11T01:19:25.421Z,101995.40
2019-04-11T01:19:51.071Z,101989.63
2019-04-11T01:20:15.782Z,101990.97
2019-04-11T01:20:40.454Z,101995.40
2019-04-11T01:21:06.145Z,101992.80
2019-04-11T01:21:30.908Z,101995.97
2019-04-11T01:21:55.537Z,101996.44
2019-04-11T01:22:20.259Z,101995.55
2019-04-11T01:22:44.872Z,102001.36
2019-04-11T01:23:09.487Z,101995.97
2019-04-11T01:23:35.084Z,101998.19
2019-04-11T01:24:00.062Z,101997.72
2019-04-11T01:24:25.936Z,102003.13
2019-04-11T01:24:50.640Z,101997.72
2019-04-11T01:25:16.634Z,102000.42
2019-04-11T01:25:41.327Z,101999.07
2019-04-11T01:26:05.953Z,101999.45
2019-04-11T01:26:30.567Z,102000.89
2019-04-11T01:26:55.302Z,101998.66
2019-04-11T01:27:19.907Z,101995.97
2019-04-11T01:27:44.555Z,101999.07
2019-04-11T01:28:10.201Z,102003.50
2019-04-11T01:28:34.873Z,102000.42
2019-04-11T01:28:59.530Z,102002.71
2019-04-11T01:29:25.155Z,101999.70
2019-04-11T01:29:49.862Z,102005.88
2019-04-11T01:30:16.189Z,102004.06
2019-04-11T01:30:42.466Z,102006.77
2019-04-11T01:31:11.615Z,102010.81
2019-04-11T01:31:38.071Z,102009.47
2019-04-11T01:32:04.354Z,102006.77
2019-04-11T01:32:28.934Z,102006.77
2019-04-11T01:32:53.545Z,102003.24
2019-04-11T01:33:18.150Z,102007.30
2019-04-11T01:33:42.757Z,102006.35
2019-04-11T01:34:08.516Z,102006.51
2019-04-11T01:34:33.354Z,102009.21
2019-04-11T01:34:59.125Z,102006.04
2019-04-11T01:35:23.861Z,102001.11
2019-04-11T01:35:48.516Z,102006.51
2019-04-11T01:36:13.765Z,102004.75
2019-04-11T01:36:39.429Z,101999.77
2019-04-11T01:37:04.157Z,102007.92
2019-04-11T01:37:28.782Z,102011.50
2019-04-11T01:37:53.396Z,102005.63
2019-04-11T01:38:21.284Z,102007.45
2019-04-11T01:38:46.448Z,102009.62
2019-04-11T01:39:16.805Z,102006.10
2019-04-11T01:39:43.416Z,102011.50
2019-04-11T01:40:09.690Z,102011.91
2019-04-11T01:40:34.466Z,102007.05
2019-04-11T01:41:00.239Z,102010.72
2019-04-11T01:41:25.018Z,102010.24
2019-04-11T01:41:50.921Z,102008.02
2019-04-11T01:42:16.634Z,102004.91
2019-04-11T01:42:42.021Z,102011.66
2019-04-11T01:43:06.630Z,102010.30
2019-04-11T01:43:32.489Z,102006.25
2019-04-11T01:44:02.216Z,102010.30
2019-04-11T01:44:23.532Z,102008.13
2019-04-11T01:44:49.241Z,102008.95
2019-04-11T01:45:14.396Z,102005.38
2019-04-11T01:45:39.030Z,102012.59
2019-04-11T01:46:03.697Z,102008.55
2019-04-11T01:46:28.298Z,102013.00
2019-04-11T01:46:54.121Z,102008.95
2019-04-11T01:47:23.288Z,102013.48
2019-04-11T01:47:49.524Z,102012.59
2019-04-11T01:48:31.226Z,102015.23
2019-04-11T01:48:57.694Z,102012.59
2019-04-11T01:49:28.217Z,102013.06
2019-04-11T01:49:52.960Z,102015.77
2019-04-11T01:50:19.228Z,102016.73
2019-04-11T01:50:43.912Z,102017.58
2019-04-11T01:51:09.614Z,102019.44
2019-04-11T01:51:34.384Z,102019.03
2019-04-11T01:52:00.096Z,102018.15
2019-04-11T01:52:24.895Z,102017.73
2019-04-11T01:52:50.746Z,102015.98
2019-04-11T01:53:15.537Z,102015.61
2019-04-11T01:53:40.993Z,102015.98
2019-04-11T01:54:07.696Z,102014.16
2019-04-11T01:54:32.373Z,102017.33
2019-04-11T01:54:57.000Z,102020.03
2019-04-11T01:55:21.611Z,102009.73
2019-04-11T01:55:46.237Z,102010.58
2019-04-11T01:56:10.876Z,102018.67
2019-04-11T01:56:35.542Z,102010.20
2019-04-11T01:57:01.332Z,102021.38
2019-04-11T01:57:26.140Z,102014.16
2019-04-11T01:57:51.903Z,102019.56
2019-04-11T01:58:16.666Z,102021.79
2019-04-11T01:58:41.278Z,102015.98
2019-04-11T01:59:06.937Z,102020.53
2019-04-11T01:59:31.746Z,102017.33
2019-04-11T01:59:56.569Z,102013.78
2019-04-11T02:00:28.868Z,102015.13
2019-04-11T02:01:12.639Z,102019.66
2019-04-11T02:01:41.503Z,102015.61
2019-04-11T02:02:26.466Z,102019.24
2019-04-11T02:03:03.225Z,102018.30
2019-04-11T02:03:33.092Z,102019.24
2019-04-11T02:04:05.841Z,102021.94
2019-04-11T02:04:44.493Z,102021.53
2019-04-11T02:05:10.753Z,102022.09
2019-04-11T02:05:35.375Z,102021.27
2019-04-11T02:06:01.211Z,102021.36
2019-04-11T02:06:26.042Z,102021.89
2019-04-11T02:06:50.665Z,102026.35
2019-04-11T02:07:15.330Z,102027.77
2019-04-11T02:07:39.938Z,102025.06
2019-04-11T02:08:04.608Z,102015.70
2019-04-11T02:08:29.244Z,102027.77
2019-04-11T02:08:53.863Z,102022.83
2019-04-11T02:09:18.578Z,102023.34
2019-04-11T02:09:44.146Z,102025.53
2019-04-11T02:10:08.892Z,102026.83
2019-04-11T02:10:34.902Z,102024.19
2019-04-11T02:10:59.722Z,102026.41
2019-04-11T02:11:25.520Z,102023.72
2019-04-11T02:11:50.402Z,102019.66
2019-04-11T02:12:16.169Z,102026.41
2019-04-11T02:12:41.518Z,102030.46
2019-04-11T02:13:06.259Z,102030.46
2019-04-11T02:13:32.075Z,102027.29
2019-04-11T02:14:09.841Z,102024.13
2019-04-11T02:14:24.138Z,102027.38
2019-04-11T02:14:50.052Z,102025.16
2019-04-11T02:15:14.750Z,102027.77
2019-04-11T02:15:39.394Z,102029.52
2019-04-11T02:16:05.019Z,102026.41
2019-04-11T02:16:29.719Z,102028.64
2019-04-11T02:16:54.354Z,102022.78
2019-04-11T02:17:18.994Z,102025.00
2019-04-11T02:17:43.606Z,102027.70
2019-04-11T02:18:08.241Z,102021.42
2019-04-11T02:18:32.863Z,102025.88
2019-04-11T02:18:57.462Z,102026.41
2019-04-11T02:19:22.104Z,102031.75
2019-04-11T02:19:46.708Z,102030.88
2019-04-11T02:20:12.495Z,102032.22
2019-04-11T02:20:37.240Z,102025.88
2019-04-11T02:21:03.111Z,102032.16
2019-04-11T02:21:28.088Z,102033.10
2019-04-11T02:21:54.882Z,102028.58
2019-04-11T02:22:24.434Z,102030.41
2019-04-11T02:22:50.972Z,102028.17
2019-04-11T02:23:26.769Z,102029.11
2019-04-11T02:24:11.951Z,102027.77
2019-04-11T02:24:43.841Z,102029.58
2019-04-11T02:25:25.745Z,102030.09
2019-04-11T02:25:52.487Z,102028.33
2019-04-11T02:26:22.026Z,102024.28
2019-04-11T02:27:03.224Z,102032.90
2019-04-11T02:27:30.672Z,102030.20
2019-04-11T02:27:56.085Z,102033.05
2019-04-11T02:28:20.880Z,102031.29
2019-04-11T02:28:46.674Z,102034.45
2019-04-11T02:29:11.543Z,102032.32
2019-04-11T02:29:37.294Z,102033.67
2019-04-11T02:30:04.058Z,102034.08
2019-04-11T02:30:29.999Z,102035.43
2019-04-11T02:30:56.625Z,102030.09
2019-04-11T02:31:22.818Z,102029.68
2019-04-11T02:31:48.012Z,102030.66
2019-04-11T02:32:12.874Z,102035.08
2019-04-11T02:32:37.528Z,102031.03
2019-04-11T02:33:02.194Z,102028.42
2019-04-11T02:33:27.074Z,102033.67
2019-04-11T02:33:51.869Z,102039.13
2019-04-11T02:34:16.804Z,102035.08
2019-04-11T02:34:41.500Z,102035.08
2019-04-11T02:35:07.693Z,102035.55
2019-04-11T02:35:32.630Z,102036.05
2019-04-11T02:35:57.355Z,102032.00
2019-04-11T02:36:22.375Z,102038.25
2019-04-11T02:36:48.922Z,102037.78
2019-04-11T02:37:15.237Z,102035.95
2019-04-11T02:37:40.363Z,102038.19
2019-04-11T02:38:07.543Z,102039.53
2019-04-11T02:38:33.389Z,102037.25
2019-04-11T02:39:03.724Z,102040.83
2019-04-11T02:39:27.523Z,102039.95
2019-04-11T02:39:53.520Z,102037.66
2019-04-11T02:40:20.087Z,102032.73
2019-04-11T02:40:45.352Z,102037.72
2019-04-11T02:41:12.512Z,102039.06
2019-04-11T02:41:39.253Z,102039.06
2019-04-11T02:42:03.839Z,102034.14
2019-04-11T02:42:28.845Z,102035.48
2019-04-11T02:42:54.852Z,102036.84
2019-04-11T02:43:20.447Z,102036.42
2019-04-11T02:43:46.807Z,102037.78
2019-04-11T02:44:32.064Z,102035.08
2019-04-11T02:44:59.657Z,102031.44
2019-04-11T02:45:19.673Z,102034.61
2019-04-11T02:45:45.373Z,102036.42
2019-04-11T02:46:11.865Z,102040.01
2019-04-11T02:46:35.647Z,102037.40
2019-04-11T02:47:00.869Z,102040.09
2019-04-11T02:47:24.400Z,102036.05
2019-04-11T02:47:48.214Z,102037.88
2019-04-11T02:48:13.655Z,102036.52
2019-04-11T02:48:38.503Z,102042.80
2019-04-11T02:49:03.353Z,102036.98
2019-04-11T02:49:28.024Z,102039.22
2019-04-11T02:49:52.637Z,102034.76
2019-04-11T02:50:19.788Z,102045.08
2019-04-11T02:50:43.648Z,102039.69
2019-04-11T02:51:09.777Z,102043.73
2019-04-11T02:51:35.063Z,102041.03
2019-04-11T02:52:02.594Z,102041.97
2019-04-11T02:52:28.128Z,102037.05
2019-04-11T02:52:52.991Z,102034.76
2019-04-11T02:53:17.639Z,102037.45
2019-04-11T02:53:42.619Z,102033.87
2019-04-11T02:54:07.717Z,102041.50
2019-04-11T02:54:33.496Z,102038.34
2019-04-11T02:54:58.671Z,102039.69
2019-04-11T02:55:23.294Z,102038.34
2019-04-11T02:55:49.627Z,102035.64
2019-04-11T02:56:14.941Z,102039.13
2019-04-11T02:56:40.677Z,102038.80
2019-04-11T02:57:07.721Z,102037.88
2019-04-11T02:57:32.957Z,102034.70
2019-04-11T02:57:59.725Z,102034.70
2019-04-11T02:58:25.955Z,102032.06
2019-04-11T02:58:52.302Z,102035.17
2019-04-11T02:59:17.667Z,102036.05
2019-04-11T02:59:44.519Z,102035.55
2019-04-11T03:00:10.553Z,102037.40
2019-04-11T03:00:37.253Z,102037.40
2019-04-11T03:01:05.034Z,102040.09
2019-04-11T03:01:28.400Z,102034.76
2019-04-11T03:01:53.215Z,102036.98
2019-04-11T03:02:19.522Z,102034.76
2019-04-11T03:02:44.550Z,102036.58
2019-04-11T03:03:10.283Z,102032.12
2019-04-11T03:03:35.188Z,102037.92
2019-04-11T03:04:01.883Z,102031.65
2019-04-11T03:04:27.108Z,102037.52
2019-04-11T03:04:52.998Z,102026.25
2019-04-11T03:05:18.398Z,102035.23
2019-04-11T03:05:44.212Z,102039.28
2019-04-11T03:06:11.033Z,102030.71
2019-04-11T03:06:36.145Z,102037.52
2019-04-11T03:07:00.813Z,102039.28
2019-04-11T03:07:25.613Z,102032.59
2019-04-11T03:07:50.422Z,102036.16
2019-04-11T03:08:18.984Z,102040.21
2019-04-11T03:08:43.062Z,102035.23
2019-04-11T03:09:07.899Z,102037.05
2019-04-11T03:09:32.715Z,102033.09
2019-04-11T03:09:57.436Z,102039.33
2019-04-11T03:10:22.276Z,102038.48
2019-04-11T03:10:46.948Z,102036.64
2019-04-11T03:11:11.817Z,102041.19
2019-04-11T03:11:36.456Z,102035.79
2019-04-11T03:12:02.821Z,102033.94
2019-04-11T03:12:29.582Z,102039.84
2019-04-11T03:12:54.642Z,102035.79
2019-04-11T03:13:20.891Z,102035.79
2019-04-11T03:13:46.635Z,102031.74
2019-04-11T03:14:14.165Z,102030.39
2019-04-11T03:15:02.083Z,102035.79
2019-04-11T03:15:25.675Z,102031.74
2019-04-11T03:15:48.503Z,102035.79
2019-04-11T03:16:19.051Z,102034.91
2019-04-11T03:16:39.409Z,102039.84
2019-04-11T03:17:03.257Z,102040.77
2019-04-11T03:17:23.011Z,102037.14
2019-04-11T03:17:47.847Z,102038.48
2019-04-11T03:18:18.543Z,102040.77
2019-04-11T03:18:57.395Z,102041.71
2019-04-11T03:19:17.906Z,102036.87
2019-04-11T03:19:43.877Z,102038.59
2019-04-11T03:20:08.266Z,102036.87
2019-04-11T03:20:31.353Z,102044.88
2019-04-11T03:20:56.860Z,102042.73
2019-04-11T03:21:20.562Z,102041.86
2019-04-11T03:21:46.561Z,102040.05
2019-04-11T03:22:09.919Z,102043.20
2019-04-11T03:22:34.968Z,102039.63
2019-04-11T03:23:04.855Z,102038.22
2019-04-11T03:23:27.872Z,102036.87
2019-04-11T03:23:52.379Z,102039.57
2019-04-11T03:24:17.632Z,102038.69
2019-04-11T03:24:43.474Z,102044.56
2019-04-11T03:25:08.610Z,102039.16
2019-04-11T03:25:33.891Z,102038.75
2019-04-11T03:25:58.699Z,102040.52
2019-04-11T03:26:24.928Z,102041.45
2019-04-11T03:26:50.311Z,102045.91
2019-04-11T03:27:17.845Z,102037.41
2019-04-11T03:27:43.298Z,102036.14
2019-04-11T03:28:14.099Z,102041.03
2019-04-11T03:28:36.406Z,102039.69
2019-04-11T03:29:02.057Z,102039.69
2019-04-11T03:29:28.729Z,102042.38
2019-04-11T03:29:55.279Z,102043.36
2019-04-11T03:30:30.201Z,102039.69
2019-04-11T03:31:06.675Z,102047.78
2019-04-11T03:31:58.285Z,102043.36
2019-04-11T03:32:16.943Z,102043.36
2019-04-11T03:32:51.323Z,102046.05
2019-04-11T03:33:18.549Z,102045.17
2019-04-11T03:33:55.141Z,102048.34
2019-04-11T03:34:18.658Z,102044.30
2019-04-11T03:34:38.509Z,102046.11
2019-04-11T03:35:09.523Z,102044.30
2019-04-11T03:35:51.824Z,102045.70
2019-04-11T03:36:01.286Z,102043.87
2019-04-11T03:36:21.675Z,102045.23
2019-04-11T03:37:47.838Z,102044.82
2019-04-11T03:38:13.886Z,102049.37
2019-04-11T03:38:36.943Z,102051.66
2019-04-11T03:39:00.214Z,102051.19
2019-04-11T03:39:29.186Z,102049.84
2019-04-11T03:39:56.889Z,102048.95
2019-04-11T03:40:22.400Z,102046.67
2019-04-11T03:40:48.124Z,102046.16
2019-04-11T03:41:14.237Z,102053.79
2019-04-11T03:41:32.068Z,102047.52
2019-04-11T03:42:07.962Z,102053.47
2019-04-11T03:42:28.506Z,102052.53
2019-04-11T03:42:55.600Z,102052.06
2019-04-11T03:43:22.989Z,102052.06
2019-04-11T03:43:42.030Z,102050.72
2019-04-11T03:44:07.841Z,102053.06
2019-04-11T03:44:31.452Z,102050.30
2019-04-11T03:45:15.076Z,102050.77
2019-04-11T03:45:37.455Z,102056.17
2019-04-11T03:46:05.249Z,102054.41
2019-04-11T03:46:26.607Z,102057.52
2019-04-11T03:46:49.322Z,102052.64
2019-04-11T03:47:16.705Z,102057.57
2019-04-11T03:47:42.435Z,102054.41
2019-04-11T03:48:12.408Z,102059.80
2019-04-11T03:48:38.480Z,102059.80
2019-04-11T03:49:01.284Z,102061.70
2019-04-11T03:49:27.923Z,102057.20
2019-04-11T03:49:51.040Z,102059.48
2019-04-11T03:50:16.591Z,102058.19
2019-04-11T03:50:38.703Z,102061.30
2019-04-11T03:51:04.500Z,102063.52
2019-04-11T03:51:29.747Z,102061.70
2019-04-11T03:51:55.016Z,102066.63
2019-04-11T03:52:19.953Z,102064.78
2019-04-11T03:52:45.157Z,102062.59
2019-04-11T03:53:11.418Z,102065.75
2019-04-11T03:53:37.178Z,102060.88
2019-04-11T03:54:02.105Z,102063.11
2019-04-11T03:54:26.981Z,102060.88
2019-04-11T03:54:51.807Z,102071.20
2019-04-11T03:55:16.570Z,102063.99
2019-04-11T03:55:41.473Z,102070.33
2019-04-11T03:56:07.597Z,102072.14
2019-04-11T03:56:33.010Z,102069.44
2019-04-11T03:57:15.513Z,102064.26
2019-04-11T03:57:41.576Z,102062.23
2019-04-11T03:58:08.354Z,102067.63
2019-04-11T03:58:33.169Z,102064.05
2019-04-11T03:58:58.457Z,102064.46
2019-04-11T03:59:23.781Z,102064.93
2019-04-11T03:59:48.516Z,102063.99
2019-04-11T04:00:15.431Z,102065.34
2019-04-11T04:00:43.979Z,102063.99
2019-04-11T04:01:10.560Z,102064.88
2019-04-11T04:01:34.112Z,102067.10
2019-04-11T04:02:00.079Z,102064.88
2019-04-11T04:02:25.322Z,102069.39
2019-04-11T04:02:50.190Z,102065.75
2019-04-11T04:03:14.834Z,102061.70
2019-04-11T04:03:39.736Z,102065.75
2019-04-11T04:04:04.436Z,102065.75
2019-04-11T04:05:06.720Z,102065.05
2019-04-11T04:05:34.663Z,102064.31
2019-04-11T04:05:59.943Z,102069.24
2019-04-11T04:06:25.562Z,102073.76
2019-04-11T04:06:50.310Z,102064.88
2019-04-11T04:07:16.537Z,102069.80
2019-04-11T04:07:41.638Z,102072.50
2019-04-11T04:08:06.290Z,102071.62
2019-04-11T04:08:31.424Z,102076.13
2019-04-11T04:08:58.297Z,102073.91
2019-04-11T04:09:23.963Z,102075.25
2019-04-11T04:09:51.057Z,102077.48
2019-04-11T04:10:17.915Z,102070.33
2019-04-11T04:10:44.188Z,102075.30
2019-04-11T04:11:22.151Z,102073.95
2019-04-11T04:11:49.146Z,102076.19
2019-04-11T04:12:15.460Z,102075.72
2019-04-11T04:12:40.342Z,102072.61
2019-04-11T04:13:09.912Z,102078.53
2019-04-11T04:13:32.053Z,102074.95
2019-04-11T04:14:04.564Z,102082.72
2019-04-11T04:14:32.442Z,102082.62
2019-04-11T04:15:09.252Z,102078.67
2019-04-11T04:16:01.832Z,102074.68
2019-04-11T04:16:27.417Z,102074.68
2019-04-11T04:16:50.282Z,102077.47
2019-04-11T04:17:32.983Z,102082.86
2019-04-11T04:18:12.939Z,102081.09
2019-04-11T04:18:58.718Z,102079.80
2019-04-11T04:19:32.892Z,102085.66
2019-04-11T04:20:05.288Z,102080.27
2019-04-11T04:20:51.152Z,102080.83
2019-04-11T04:21:36.024Z,102084.46
2019-04-11T04:22:03.129Z,102085.39
2019-04-11T04:22:35.754Z,102085.48
2019-04-11T04:23:10.251Z,102079.68
2019-04-11T04:23:37.872Z,102080.56
2019-04-11T04:24:04.034Z,102081.91
2019-04-11T04:24:38.826Z,102079.68
2019-04-11T04:25:00.932Z,102083.67
2019-04-11T04:25:26.151Z,102078.33
2019-04-11T04:25:51.674Z,102077.39
2019-04-11T04:26:17.004Z,102082.32
2019-04-11T04:26:43.146Z,102086.36
2019-04-11T04:27:09.931Z,102078.28
2019-04-11T04:27:35.265Z,102083.16
2019-04-11T04:28:00.434Z,102080.56
2019-04-11T04:28:25.230Z,102085.02
2019-04-11T04:28:51.186Z,102077.30
2019-04-11T04:29:17.829Z,102083.11
2019-04-11T04:29:46.768Z,102082.18
2019-04-11T04:30:10.670Z,102083.94
2019-04-11T04:30:36.067Z,102083.85
2019-04-11T04:31:02.110Z,102083.85
2019-04-11T04:31:26.785Z,102086.08
2019-04-11T04:31:53.004Z,102081.52
2019-04-11T04:32:52.226Z,102080.32
2019-04-11T04:33:17.655Z,102090.72
2019-04-11T04:33:45.327Z,102089.88
2019-04-11T04:34:11.023Z,102094.30
2019-04-11T04:34:36.671Z,102086.20
2019-04-11T04:35:01.795Z,102093.41
2019-04-11T04:35:28.452Z,102088.99
2019-04-11T04:35:53.154Z,102093.92
2019-04-11T04:36:18.399Z,102090.34
2019-04-11T04:36:43.232Z,102089.92
2019-04-11T04:37:08.309Z,102085.47
2019-04-11T04:37:34.688Z,102093.09
2019-04-11T04:37:59.846Z,102096.20
2019-04-11T04:38:24.760Z,102093.83
2019-04-11T04:38:49.539Z,102091.59
2019-04-11T04:39:14.146Z,102092.45
2019-04-11T04:39:39.823Z,102091.58
2019-04-11T04:40:23.876Z,102101.44
2019-04-11T04:40:49.954Z,102089.20
2019-04-11T04:41:12.717Z,102088.68
2019-04-11T04:41:35.020Z,102092.64
2019-04-11T04:42:01.314Z,102097.56
2019-04-11T04:42:26.400Z,102089.47
2019-04-11T04:42:49.871Z,102101.14
2019-04-11T04:43:12.109Z,102098.91
2019-04-11T04:43:36.876Z,102098.45
2019-04-11T04:44:01.909Z,102096.69
2019-04-11T04:44:26.629Z,102093.98
2019-04-11T04:44:51.241Z,102102.96
2019-04-11T04:45:16.375Z,102097.16
2019-04-11T04:45:57.848Z,102097.56
2019-04-11T04:46:25.195Z,102095.80
2019-04-11T04:46:54.794Z,102101.61
2019-04-11T04:47:15.315Z,102098.39
2019-04-11T04:47:37.371Z,102099.33
2019-04-11T04:48:02.355Z,102101.09
2019-04-11T04:48:45.599Z,102101.88
2019-04-11T04:49:11.764Z,102104.72
2019-04-11T04:49:38.838Z,102104.72
2019-04-11T04:50:06.507Z,102102.02
2019-04-11T04:50:31.290Z,102099.27
2019-04-11T04:51:06.136Z,102102.44
2019-04-11T04:51:28.887Z,102098.77
2019-04-11T04:51:55.504Z,102098.77
2019-04-11T04:52:20.817Z,102105.92
2019-04-11T04:52:45.596Z,102101.88
2019-04-11T04:53:10.231Z,102109.03
2019-04-11T04:53:35.561Z,102101.88
2019-04-11T04:54:00.553Z,102110.39
2019-04-11T04:54:25.644Z,102104.52
2019-04-11T04:54:50.380Z,102104.58
2019-04-11T04:55:17.068Z,102108.16
2019-04-11T04:55:41.323Z,102110.39
2019-04-11T04:56:06.733Z,102103.17
2019-04-11T04:56:32.451Z,102104.05
2019-04-11T04:56:58.350Z,102103.97
2019-04-11T04:57:24.465Z,102106.28
2019-04-11T04:57:51.003Z,102112.15
2019-04-11T04:58:17.816Z,102110.39
2019-04-11T04:58:42.263Z,102111.73
2019-04-11T04:59:07.604Z,102104.58
2019-04-11T04:59:34.047Z,102105.88
2019-04-11T05:00:00.120Z,102111.73
2019-04-11T05:00:27.530Z,102109.03
2019-04-11T05:00:54.233Z,102109.45
2019-04-11T05:01:19.376Z,102111.27
2019-04-11T05:01:46.270Z,102109.03
2019-04-11T05:02:12.832Z,102113.50